createdAt,value
2022-08-03T00:00:08.219Z,3.62
2022-08-03T00:01:11.359Z,4.50
2022-08-03T00:02:14.638Z,3.62
2022-08-03T00:03:20.825Z,3.47
2022-08-03T00:04:34.080Z,3.35
2022-08-03T00:05:37.719Z,3.28
2022-08-03T00:06:40.681Z,3.47
2022-08-03T00:07:43.620Z,3.80
2022-08-03T00:08:47.472Z,2.85
2022-08-03T00:09:50.813Z,2.95
2022-08-03T00:10:53.890Z,3.00
2022-08-03T00:11:56.760Z,3.50
2022-08-03T00:12:59.801Z,3.12
2022-08-03T00:14:03.768Z,3.12
2022-08-03T00:15:10.508Z,3.08
2022-08-03T00:16:19.121Z,3.12
2022-08-03T00:17:26.059Z,3.00
2022-08-03T00:18:29.139Z,3.20
2022-08-03T00:19:32.099Z,3.35
2022-08-03T00:20:35.483Z,3.17
2022-08-03T00:21:38.385Z,2.65
2022-08-03T00:22:41.320Z,2.90
2022-08-03T00:23:51.468Z,2.95
2022-08-03T00:24:55.646Z,2.70
2022-08-03T00:25:58.752Z,3.05
2022-08-03T00:27:05.607Z,3.35
2022-08-03T00:28:09.171Z,3.28
2022-08-03T00:29:12.219Z,3.20
2022-08-03T00:30:16.994Z,3.42
2022-08-03T00:31:28.375Z,3.25
2022-08-03T00:32:44.407Z,3.10
2022-08-03T00:33:58.064Z,2.95
2022-08-03T00:35:03.147Z,3.10
2022-08-03T00:36:11.389Z,3.55
2022-08-03T00:37:14.359Z,3.17
2022-08-03T00:38:21.019Z,3.87
2022-08-03T00:39:23.893Z,3.55
2022-08-03T00:40:27.383Z,3.58
2022-08-03T00:41:30.408Z,3.53
2022-08-03T00:42:33.503Z,3.70
2022-08-03T00:43:36.452Z,3.75
2022-08-03T00:44:43.261Z,3.95
2022-08-03T00:45:46.194Z,4.05
2022-08-03T00:46:49.242Z,4.20
2022-08-03T00:47:52.671Z,4.10
2022-08-03T00:48:56.082Z,3.97
2022-08-03T00:49:59.096Z,4.07
2022-08-03T00:51:03.734Z,3.80
2022-08-03T00:52:09.803Z,4.10
2022-08-03T00:53:13.768Z,3.92
2022-08-03T00:54:16.895Z,4.22
2022-08-03T00:55:20.796Z,4.37
2022-08-03T00:56:25.808Z,4.65
2022-08-03T00:57:32.096Z,4.32
2022-08-03T00:58:35.645Z,4.95
2022-08-03T00:59:39.548Z,4.70
2022-08-03T01:00:42.497Z,4.87
2022-08-03T01:01:45.491Z,5.05
2022-08-03T01:02:48.888Z,4.65
2022-08-03T01:03:55.187Z,4.30
2022-08-03T01:04:58.107Z,5.10
2022-08-03T01:06:19.023Z,4.45
2022-08-03T01:07:31.170Z,4.50
2022-08-03T01:09:08.083Z,4.93
2022-08-03T01:10:14.589Z,4.78
2022-08-03T01:12:00.266Z,4.87
2022-08-03T01:13:59.134Z,4.90
2022-08-03T01:15:11.969Z,4.95
2022-08-03T01:16:36.850Z,4.47
2022-08-03T01:18:00.601Z,4.93
2022-08-03T01:19:13.750Z,4.70
2022-08-03T01:20:18.861Z,4.95
2022-08-03T01:22:00.918Z,4.57
2022-08-03T01:23:52.035Z,4.60
2022-08-03T01:25:15.260Z,4.50
2022-08-03T01:26:52.970Z,4.55
2022-08-03T01:28:24.531Z,4.90
2022-08-03T01:29:53.240Z,4.85
2022-08-03T01:31:02.848Z,4.75
2022-08-03T01:33:02.412Z,4.57
2022-08-03T01:33:41.292Z,4.65
2022-08-03T01:34:52.360Z,5.30
2022-08-03T01:36:05.912Z,4.90
2022-08-03T01:37:17.327Z,5.20
2022-08-03T01:39:42.568Z,4.70
2022-08-03T01:40:48.398Z,4.43
2022-08-03T01:42:00.244Z,4.80
2022-08-03T01:43:07.082Z,4.80
2022-08-03T01:44:29.321Z,4.87
2022-08-03T01:45:37.467Z,5.12
2022-08-03T01:46:49.480Z,4.50
2022-08-03T01:47:54.812Z,5.15
2022-08-03T01:49:00.530Z,5.00
2022-08-03T01:50:14.637Z,4.72
2022-08-03T01:51:23.043Z,4.57
2022-08-03T01:52:28.339Z,5.00
2022-08-03T01:53:34.551Z,4.85
2022-08-03T01:54:44.281Z,5.30
2022-08-03T01:55:52.998Z,5.15
2022-08-03T01:57:00.640Z,4.97
2022-08-03T01:58:06.948Z,4.90
2022-08-03T01:59:12.443Z,5.12
2022-08-03T02:00:19.585Z,5.22
2022-08-03T02:01:26.178Z,4.30
2022-08-03T02:02:51.353Z,5.07
2022-08-03T02:04:00.714Z,4.87
2022-08-03T02:05:10.660Z,4.87
2022-08-03T02:07:02.634Z,4.53
2022-08-03T02:07:43.149Z,5.18
2022-08-03T02:08:50.142Z,5.03
2022-08-03T02:09:56.365Z,5.22
2022-08-03T02:11:03.016Z,4.65
2022-08-03T02:12:11.873Z,5.00
2022-08-03T02:13:17.694Z,5.30
2022-08-03T02:14:23.247Z,4.62
2022-08-03T02:15:28.929Z,4.85
2022-08-03T02:16:35.480Z,4.40
2022-08-03T02:17:41.986Z,5.10
2022-08-03T02:18:48.621Z,4.95
2022-08-03T02:19:54.337Z,4.75
2022-08-03T02:21:01.945Z,4.85
2022-08-03T02:22:16.414Z,4.75
2022-08-03T02:23:20.597Z,4.70
2022-08-03T02:24:24.552Z,5.20
2022-08-03T02:25:29.466Z,4.75
2022-08-03T02:26:37.991Z,4.85
2022-08-03T02:27:53.277Z,4.57
2022-08-03T02:29:00.026Z,5.05
2022-08-03T02:30:11.450Z,5.18
2022-08-03T02:31:20.051Z,5.20
2022-08-03T02:32:36.614Z,4.90
2022-08-03T02:33:44.745Z,5.03
2022-08-03T02:34:52.362Z,5.40
2022-08-03T02:35:58.322Z,4.93
2022-08-03T02:37:08.008Z,5.37
2022-08-03T02:38:21.147Z,5.37
2022-08-03T02:39:27.739Z,5.30
2022-08-03T02:40:33.721Z,4.93
2022-08-03T02:41:50.912Z,5.07
2022-08-03T02:42:58.630Z,5.53
2022-08-03T02:44:08.073Z,4.93
2022-08-03T02:45:14.443Z,4.93
2022-08-03T02:46:23.354Z,4.65
2022-08-03T02:47:54.279Z,4.80
2022-08-03T02:48:56.350Z,4.90
2022-08-03T02:50:02.242Z,5.47
2022-08-03T02:51:06.731Z,5.12
2022-08-03T02:52:15.841Z,5.20
2022-08-03T02:53:23.028Z,5.03
2022-08-03T02:54:28.384Z,5.03
2022-08-03T02:55:36.463Z,5.57
2022-08-03T02:56:49.444Z,5.62
2022-08-03T02:57:55.428Z,5.72
2022-08-03T02:59:01.473Z,5.57
2022-08-03T03:00:08.508Z,5.28
2022-08-03T03:01:14.080Z,5.80
2022-08-03T03:02:20.633Z,5.55
2022-08-03T03:03:25.843Z,5.62
2022-08-03T03:04:33.601Z,5.85
2022-08-03T03:05:55.894Z,5.65
2022-08-03T03:07:04.582Z,5.65
2022-08-03T03:08:18.029Z,6.00
2022-08-03T03:09:24.112Z,6.28
2022-08-03T03:10:33.229Z,5.55
2022-08-03T03:11:41.142Z,5.80
2022-08-03T03:12:47.155Z,6.78
2022-08-03T03:13:51.776Z,6.72
2022-08-03T03:14:55.054Z,6.32
2022-08-03T03:16:01.795Z,6.10
2022-08-03T03:17:07.455Z,5.95
2022-08-03T03:18:11.684Z,6.20
2022-08-03T03:19:17.582Z,6.60
2022-08-03T03:20:30.286Z,6.20
2022-08-03T03:21:35.790Z,7.12
2022-08-03T03:22:40.539Z,6.85
2022-08-03T03:23:49.181Z,5.95
2022-08-03T03:24:53.734Z,6.37
2022-08-03T03:25:58.794Z,6.15
2022-08-03T03:27:03.126Z,6.90
2022-08-03T03:28:06.628Z,7.47
2022-08-03T03:29:10.280Z,6.82
2022-08-03T03:30:13.860Z,6.68
2022-08-03T03:32:34.169Z,6.10
2022-08-03T03:33:38.849Z,6.62
2022-08-03T03:34:42.762Z,6.50
2022-08-03T03:35:47.568Z,6.70
2022-08-03T03:36:50.804Z,7.07
2022-08-03T03:37:53.513Z,6.82
2022-08-03T03:38:58.734Z,6.37
2022-08-03T03:40:19.598Z,6.35
2022-08-03T03:41:22.592Z,6.25
2022-08-03T03:42:26.350Z,6.95
2022-08-03T03:43:29.857Z,6.80
2022-08-03T03:44:32.588Z,6.72
2022-08-03T03:45:36.212Z,6.68
2022-08-03T03:46:40.064Z,7.12
2022-08-03T03:47:42.902Z,6.45
2022-08-03T03:48:46.450Z,6.50
2022-08-03T03:49:49.265Z,6.70
2022-08-03T03:50:55.134Z,6.37
2022-08-03T03:51:57.832Z,6.60
2022-08-03T03:53:00.692Z,7.05
2022-08-03T03:54:07.089Z,6.50
2022-08-03T03:55:10.001Z,6.82
2022-08-03T03:56:12.762Z,6.25
2022-08-03T03:57:15.434Z,6.05
2022-08-03T03:58:18.874Z,6.72
2022-08-03T03:59:21.758Z,6.65
2022-08-03T04:00:24.445Z,6.68
2022-08-03T04:01:27.581Z,6.22
2022-08-03T04:02:30.470Z,6.82
2022-08-03T04:03:33.219Z,6.43
2022-08-03T04:04:55.106Z,6.57
2022-08-03T04:07:39.397Z,6.15
2022-08-03T04:09:21.448Z,6.15
2022-08-03T04:10:47.781Z,5.82
2022-08-03T04:11:54.281Z,6.43
2022-08-03T04:13:00.868Z,6.72
2022-08-03T04:14:08.345Z,6.25
2022-08-03T04:15:13.431Z,6.37
2022-08-03T04:16:19.866Z,6.50
2022-08-03T04:17:27.213Z,6.05
2022-08-03T04:18:34.704Z,6.47
2022-08-03T04:19:38.522Z,6.55
2022-08-03T04:20:47.809Z,6.57
2022-08-03T04:21:53.033Z,6.18
2022-08-03T04:23:00.870Z,6.45
2022-08-03T04:24:06.284Z,6.25
2022-08-03T04:25:17.060Z,6.80
2022-08-03T04:26:22.771Z,6.25
2022-08-03T04:27:31.418Z,6.10
2022-08-03T04:28:35.160Z,6.03
2022-08-03T04:29:44.785Z,6.75
2022-08-03T04:30:56.705Z,5.93
2022-08-03T04:32:00.946Z,6.00
2022-08-03T04:33:07.259Z,5.85
2022-08-03T04:34:11.212Z,6.07
2022-08-03T04:35:14.208Z,6.37
2022-08-03T04:36:22.630Z,5.95
2022-08-03T04:37:25.711Z,5.68
2022-08-03T04:38:36.024Z,5.97
2022-08-03T04:39:39.731Z,5.93
2022-08-03T04:40:45.857Z,5.65
2022-08-03T04:42:07.188Z,6.90
2022-08-03T04:43:15.037Z,6.00
2022-08-03T04:44:22.062Z,5.80
2022-08-03T04:45:32.986Z,5.70
2022-08-03T04:46:39.280Z,5.72
2022-08-03T04:47:50.745Z,5.68
2022-08-03T04:48:57.896Z,6.28
2022-08-03T04:50:09.132Z,5.82
2022-08-03T04:51:15.338Z,6.32
2022-08-03T04:52:21.608Z,5.70
2022-08-03T04:53:24.385Z,5.97
2022-08-03T04:54:27.251Z,5.65
2022-08-03T04:55:32.438Z,5.28
2022-08-03T04:56:38.598Z,6.05
2022-08-03T04:57:42.047Z,5.90
2022-08-03T04:58:44.994Z,6.10
2022-08-03T04:59:49.595Z,5.62
2022-08-03T05:00:52.310Z,5.55
2022-08-03T05:01:55.028Z,6.28
2022-08-03T05:03:00.116Z,6.35
2022-08-03T05:04:02.979Z,6.40
2022-08-03T05:05:06.079Z,6.15
2022-08-03T05:06:11.396Z,5.93
2022-08-03T05:07:15.394Z,5.70
2022-08-03T05:08:20.753Z,6.00
2022-08-03T05:09:52.652Z,5.87
2022-08-03T05:10:59.051Z,5.97
2022-08-03T05:12:02.334Z,5.65
2022-08-03T05:13:04.992Z,5.47
2022-08-03T05:14:07.708Z,5.82
2022-08-03T05:15:10.803Z,5.70
2022-08-03T05:16:14.191Z,5.93
2022-08-03T05:17:17.233Z,5.72
2022-08-03T05:18:20.335Z,5.15
2022-08-03T05:19:23.119Z,5.62
2022-08-03T05:20:25.803Z,5.32
2022-08-03T05:21:51.885Z,5.28
2022-08-03T05:22:51.442Z,5.45
2022-08-03T05:23:54.253Z,5.40
2022-08-03T05:24:56.981Z,5.20
2022-08-03T05:25:59.763Z,5.53
2022-08-03T05:27:03.447Z,5.80
2022-08-03T05:28:06.320Z,5.43
2022-08-03T05:29:12.740Z,5.62
2022-08-03T05:30:30.450Z,5.20
2022-08-03T05:31:37.018Z,5.93
2022-08-03T05:32:39.576Z,5.97
2022-08-03T05:33:45.223Z,5.62
2022-08-03T05:34:47.945Z,5.75
2022-08-03T05:36:03.518Z,5.30
2022-08-03T05:37:07.564Z,4.93
2022-08-03T05:38:10.930Z,5.87
2022-08-03T05:39:14.658Z,5.18
2022-08-03T05:40:17.420Z,4.87
2022-08-03T05:41:36.972Z,5.95
2022-08-03T05:42:40.225Z,5.18
2022-08-03T05:43:43.169Z,5.75
2022-08-03T05:44:45.803Z,5.60
2022-08-03T05:45:48.880Z,5.60
2022-08-03T05:47:11.785Z,5.78
2022-08-03T05:48:14.665Z,5.45
2022-08-03T05:49:21.720Z,5.18
2022-08-03T05:50:24.494Z,5.53
2022-08-03T05:51:31.624Z,5.50
2022-08-03T05:52:34.318Z,6.05
2022-08-03T05:53:37.936Z,5.95
2022-08-03T05:54:55.932Z,6.03
2022-08-03T05:56:03.449Z,5.40
2022-08-03T05:57:19.337Z,5.20
2022-08-03T05:58:24.462Z,5.85
2022-08-03T05:59:38.512Z,5.57
2022-08-03T06:00:41.688Z,5.97
2022-08-03T06:01:44.405Z,5.80
2022-08-03T06:02:50.756Z,6.10
2022-08-03T06:03:53.911Z,5.28
2022-08-03T06:04:56.643Z,5.82
2022-08-03T06:06:00.456Z,5.82
2022-08-03T06:07:03.680Z,5.97
2022-08-03T06:08:06.785Z,6.03
2022-08-03T06:09:13.675Z,5.65
2022-08-03T06:10:36.560Z,5.80
2022-08-03T06:11:40.551Z,5.53
2022-08-03T06:12:43.273Z,5.43
2022-08-03T06:13:45.929Z,5.65
2022-08-03T06:14:48.632Z,6.00
2022-08-03T06:15:51.473Z,5.72
2022-08-03T06:16:54.361Z,5.60
2022-08-03T06:18:01.714Z,5.57
2022-08-03T06:19:04.905Z,5.93
2022-08-03T06:20:07.978Z,6.18
2022-08-03T06:21:14.677Z,5.10
2022-08-03T06:22:18.753Z,5.03
2022-08-03T06:23:21.556Z,5.32
2022-08-03T06:24:25.107Z,5.97
2022-08-03T06:25:27.959Z,5.53
2022-08-03T06:26:30.685Z,5.25
2022-08-03T06:27:36.543Z,5.90
2022-08-03T06:28:52.758Z,5.72
2022-08-03T06:29:56.498Z,6.18
2022-08-03T06:30:59.131Z,5.55
2022-08-03T06:32:01.925Z,5.93
2022-08-03T06:33:04.550Z,5.35
2022-08-03T06:34:33.865Z,4.97
2022-08-03T06:35:34.274Z,5.47
2022-08-03T06:36:38.857Z,5.43
2022-08-03T06:37:49.547Z,6.00
2022-08-03T06:38:52.889Z,5.62
2022-08-03T06:39:55.775Z,5.65
2022-08-03T06:40:58.663Z,5.20
2022-08-03T06:42:01.388Z,5.80
2022-08-03T06:43:04.301Z,5.12
2022-08-03T06:44:07.054Z,5.68
2022-08-03T06:45:10.110Z,6.00
2022-08-03T06:46:12.872Z,6.25
2022-08-03T06:47:16.054Z,5.72
2022-08-03T06:48:18.929Z,5.75
2022-08-03T06:49:21.725Z,5.75
2022-08-03T06:50:26.297Z,5.93
2022-08-03T06:52:05.546Z,5.57
2022-08-03T06:52:52.389Z,5.50
2022-08-03T06:53:55.037Z,5.50
2022-08-03T06:54:58.212Z,5.60
2022-08-03T06:56:00.933Z,4.97
2022-08-03T06:57:04.061Z,5.32
2022-08-03T06:58:07.162Z,5.72
2022-08-03T06:59:09.821Z,5.22
2022-08-03T07:00:32.675Z,6.10
2022-08-03T07:01:35.362Z,5.00
2022-08-03T07:02:38.968Z,6.07
2022-08-03T07:03:52.319Z,6.10
2022-08-03T07:04:55.901Z,6.28
2022-08-03T07:05:58.697Z,5.37
2022-08-03T07:07:01.931Z,5.72
2022-08-03T07:08:05.250Z,5.65
2022-08-03T07:09:07.950Z,5.78
2022-08-03T07:10:11.900Z,5.75
2022-08-03T07:11:14.812Z,5.37
2022-08-03T07:12:17.675Z,4.95
2022-08-03T07:13:20.590Z,5.75
2022-08-03T07:14:24.453Z,5.45
2022-08-03T07:15:55.212Z,5.50
2022-08-03T07:16:50.574Z,5.28
2022-08-03T07:17:53.548Z,5.22
2022-08-03T07:18:56.503Z,5.70
2022-08-03T07:20:00.025Z,5.32
2022-08-03T07:21:02.854Z,5.70
2022-08-03T07:22:05.569Z,5.28
2022-08-03T07:23:08.303Z,5.62
2022-08-03T07:24:11.009Z,5.18
2022-08-03T07:25:13.854Z,5.43
2022-08-03T07:26:16.573Z,5.37
2022-08-03T07:27:19.413Z,5.18
2022-08-03T07:28:23.609Z,5.55
2022-08-03T07:29:26.335Z,5.28
2022-08-03T07:30:28.985Z,5.07
2022-08-03T07:31:34.425Z,5.70
2022-08-03T07:32:37.498Z,5.05
2022-08-03T07:33:53.922Z,5.95
2022-08-03T07:35:00.593Z,5.53
2022-08-03T07:36:04.191Z,5.62
2022-08-03T07:37:06.882Z,5.35
2022-08-03T07:38:09.787Z,5.95
2022-08-03T07:39:15.783Z,5.85
2022-08-03T07:40:20.823Z,5.53
2022-08-03T07:41:23.651Z,5.90
2022-08-03T07:42:27.845Z,5.68
2022-08-03T07:43:30.659Z,5.12
2022-08-03T07:44:33.363Z,5.25
2022-08-03T07:45:36.141Z,5.05
2022-08-03T07:46:38.889Z,5.50
2022-08-03T07:47:42.153Z,5.57
2022-08-03T07:48:56.318Z,5.32
2022-08-03T07:49:59.162Z,5.18
2022-08-03T07:51:03.688Z,5.57
2022-08-03T07:52:25.149Z,5.18
2022-08-03T07:53:31.320Z,5.80
2022-08-03T07:54:34.198Z,5.20
2022-08-03T07:55:36.845Z,5.20
2022-08-03T07:56:39.513Z,5.68
2022-08-03T07:57:42.470Z,5.93
2022-08-03T07:58:47.522Z,4.68
2022-08-03T08:00:01.717Z,5.68
2022-08-03T08:01:05.686Z,5.40
2022-08-03T08:02:08.455Z,5.80
2022-08-03T08:03:15.681Z,5.40
2022-08-03T08:04:18.275Z,5.37
2022-08-03T08:05:21.111Z,5.15
2022-08-03T08:06:23.917Z,4.55
2022-08-03T08:07:26.669Z,5.05
2022-08-03T08:08:29.968Z,5.25
2022-08-03T08:09:33.254Z,5.05
2022-08-03T08:10:36.930Z,5.50
2022-08-03T08:11:40.051Z,4.97
2022-08-03T08:12:42.923Z,5.30
2022-08-03T08:13:48.671Z,5.22
2022-08-03T08:14:51.530Z,5.00
2022-08-03T08:15:54.335Z,5.03
2022-08-03T08:16:57.099Z,5.15
2022-08-03T08:18:01.620Z,5.20
2022-08-03T08:19:05.242Z,5.10
2022-08-03T08:20:08.737Z,4.43
2022-08-03T08:21:11.690Z,4.47
2022-08-03T08:22:15.389Z,4.87
2022-08-03T08:23:41.677Z,5.07
2022-08-03T08:24:48.684Z,5.22
2022-08-03T08:25:54.495Z,5.20
2022-08-03T08:26:57.221Z,4.72
2022-08-03T08:28:31.373Z,5.00
2022-08-03T08:29:27.740Z,5.55
2022-08-03T08:30:33.026Z,4.97
2022-08-03T08:31:35.673Z,4.80
2022-08-03T08:32:38.638Z,4.87
2022-08-03T08:34:03.715Z,4.30
2022-08-03T08:35:06.432Z,5.32
2022-08-03T08:36:14.849Z,4.75
2022-08-03T08:37:18.438Z,5.22
2022-08-03T08:38:23.464Z,4.45
2022-08-03T08:39:26.164Z,4.97
2022-08-03T08:40:35.786Z,4.87
2022-08-03T08:41:38.709Z,5.00
2022-08-03T08:42:58.283Z,5.37
2022-08-03T08:44:02.890Z,4.78
2022-08-03T08:45:07.323Z,4.90
2022-08-03T08:46:23.435Z,5.07
2022-08-03T08:47:32.165Z,4.90
2022-08-03T08:48:54.835Z,4.87
2022-08-03T08:50:09.904Z,4.55
2022-08-03T08:51:14.561Z,5.03
2022-08-03T08:52:24.943Z,4.25
2022-08-03T08:53:30.408Z,4.37
2022-08-03T08:54:33.581Z,4.40
2022-08-03T08:55:56.597Z,4.55
2022-08-03T08:57:09.112Z,4.30
2022-08-03T08:58:23.202Z,4.25
2022-08-03T08:59:48.257Z,4.30
2022-08-03T09:00:51.907Z,4.53
2022-08-03T09:01:58.872Z,4.18
2022-08-03T09:03:02.201Z,3.95
2022-08-03T09:04:09.625Z,4.10
2022-08-03T09:05:18.363Z,4.00
2022-08-03T09:06:22.817Z,4.20
2022-08-03T09:07:25.527Z,4.40
2022-08-03T09:08:31.284Z,3.95
2022-08-03T09:10:11.012Z,4.35
2022-08-03T09:10:56.818Z,3.87
2022-08-03T09:12:20.928Z,4.70
2022-08-03T09:13:23.248Z,4.62
2022-08-03T09:14:34.189Z,4.03
2022-08-03T09:16:00.582Z,4.70
2022-08-03T09:17:04.763Z,4.43
2022-08-03T09:18:09.703Z,4.45
2022-08-03T09:19:14.968Z,4.53
2022-08-03T09:20:18.575Z,4.47
2022-08-03T09:21:32.173Z,4.32
2022-08-03T09:22:35.567Z,4.68
2022-08-03T09:24:01.962Z,4.85
2022-08-03T09:25:24.199Z,4.00
2022-08-03T09:26:32.759Z,3.22
2022-08-03T09:27:45.816Z,3.33
2022-08-03T09:29:15.572Z,3.72
2022-08-03T09:30:34.267Z,3.60
2022-08-03T09:31:45.920Z,3.87
2022-08-03T09:32:49.012Z,3.90
2022-08-03T09:34:01.169Z,3.95
2022-08-03T09:35:04.781Z,3.90
2022-08-03T09:36:07.505Z,3.70
2022-08-03T09:37:18.875Z,4.40
2022-08-03T09:38:32.145Z,4.10
2022-08-03T09:39:41.941Z,3.87
2022-08-03T09:40:46.244Z,3.83
2022-08-03T09:42:06.313Z,3.35
2022-08-03T09:43:09.986Z,3.47
2022-08-03T09:44:25.334Z,3.45
2022-08-03T09:45:30.218Z,3.22
2022-08-03T09:46:50.155Z,3.20
2022-08-03T09:48:00.084Z,3.40
2022-08-03T09:49:12.925Z,3.75
2022-08-03T09:50:15.890Z,3.70
2022-08-03T09:51:33.117Z,3.70
2022-08-03T09:52:52.662Z,3.78
2022-08-03T09:54:01.930Z,4.20
2022-08-03T09:56:32.916Z,3.83
2022-08-03T09:56:54.149Z,3.75
2022-08-03T09:58:08.604Z,3.58
2022-08-03T09:59:12.896Z,3.70
2022-08-03T10:00:17.547Z,3.70
2022-08-03T10:01:25.492Z,3.67
2022-08-03T10:02:28.423Z,4.28
2022-08-03T10:04:02.811Z,3.87
2022-08-03T10:05:00.571Z,4.15
2022-08-03T10:06:20.227Z,4.07
2022-08-03T10:07:24.581Z,4.25
2022-08-03T10:08:33.824Z,4.15
2022-08-03T10:09:37.684Z,4.45
2022-08-03T10:10:47.899Z,4.65
2022-08-03T10:11:50.822Z,4.47
2022-08-03T10:12:53.650Z,4.40
2022-08-03T10:13:57.987Z,4.37
2022-08-03T10:15:05.746Z,4.50
2022-08-03T10:16:23.005Z,4.12
2022-08-03T10:17:27.959Z,4.28
2022-08-03T10:18:33.181Z,4.75
2022-08-03T10:19:35.916Z,4.68
2022-08-03T10:20:46.132Z,4.28
2022-08-03T10:21:55.398Z,4.07
2022-08-03T10:23:00.059Z,4.18
2022-08-03T10:24:06.243Z,4.03
2022-08-03T10:25:13.625Z,3.95
2022-08-03T10:26:22.690Z,4.18
2022-08-03T10:27:35.275Z,4.00
2022-08-03T10:28:45.233Z,3.78
2022-08-03T10:29:53.734Z,4.57
2022-08-03T10:30:56.794Z,4.78
2022-08-03T10:32:01.557Z,5.00
2022-08-03T10:33:49.891Z,4.85
2022-08-03T10:34:44.624Z,4.20
2022-08-03T10:35:52.897Z,4.47
2022-08-03T10:37:00.303Z,4.97
2022-08-03T10:38:17.189Z,4.20
2022-08-03T10:39:23.007Z,4.60
2022-08-03T10:41:55.479Z,5.18
2022-08-03T10:43:06.135Z,5.30
2022-08-03T10:44:24.612Z,4.90
2022-08-03T10:45:28.459Z,4.45
2022-08-03T10:46:34.092Z,4.70
2022-08-03T10:47:37.682Z,4.60
2022-08-03T10:48:40.888Z,4.53
2022-08-03T10:49:44.076Z,4.78
2022-08-03T10:50:50.061Z,4.47
2022-08-03T10:51:54.262Z,3.75
2022-08-03T10:53:04.053Z,4.10
2022-08-03T10:54:06.974Z,4.45
2022-08-03T10:56:08.693Z,4.37
2022-08-03T10:57:48.758Z,5.03
2022-08-03T10:58:57.941Z,4.40
2022-08-03T11:00:04.956Z,4.50
2022-08-03T11:01:15.781Z,4.60
2022-08-03T11:02:21.849Z,4.10
2022-08-03T11:03:24.539Z,4.30
2022-08-03T11:04:27.375Z,4.12
2022-08-03T11:05:31.999Z,4.30
2022-08-03T11:06:37.476Z,4.40
2022-08-03T11:07:44.746Z,4.50
2022-08-03T11:09:12.641Z,4.32
2022-08-03T11:10:32.098Z,4.28
2022-08-03T11:11:34.879Z,4.15
2022-08-03T11:12:37.845Z,3.87
2022-08-03T11:13:58.300Z,4.93
2022-08-03T11:15:04.770Z,4.10
2022-08-03T11:16:22.335Z,4.75
2022-08-03T11:17:25.413Z,4.18
2022-08-03T11:18:28.787Z,3.83
2022-08-03T11:19:58.000Z,4.20
2022-08-03T11:21:01.188Z,4.03
2022-08-03T11:22:03.988Z,3.78
2022-08-03T11:23:07.709Z,3.90
2022-08-03T11:24:41.329Z,3.92
2022-08-03T11:26:13.126Z,4.22
2022-08-03T11:27:16.076Z,3.90
2022-08-03T11:28:28.844Z,3.60
2022-08-03T11:29:32.058Z,3.83
2022-08-03T11:30:34.924Z,3.58
2022-08-03T11:31:49.886Z,3.70
2022-08-03T11:32:57.784Z,3.83
2022-08-03T11:34:07.893Z,3.62
2022-08-03T11:35:15.129Z,4.00
2022-08-03T11:36:32.591Z,3.42
2022-08-03T11:37:36.531Z,3.62
2022-08-03T11:39:17.099Z,3.40
2022-08-03T11:40:45.348Z,3.35
2022-08-03T11:41:48.194Z,3.25
2022-08-03T11:42:50.977Z,3.40
2022-08-03T11:43:54.043Z,3.67
2022-08-03T11:45:06.169Z,3.95
2022-08-03T11:46:29.965Z,3.75
2022-08-03T11:47:37.542Z,3.58
2022-08-03T11:48:59.559Z,3.70
2022-08-03T11:50:02.441Z,3.60
2022-08-03T11:51:09.766Z,3.30
2022-08-03T11:52:12.995Z,3.35
2022-08-03T11:53:18.523Z,3.83
2022-08-03T11:54:22.908Z,4.10
2022-08-03T11:55:30.487Z,3.80
2022-08-03T11:56:50.656Z,4.05
2022-08-03T11:59:11.019Z,3.50
2022-08-03T11:59:32.889Z,3.83
2022-08-03T12:00:35.627Z,3.75
2022-08-03T12:01:41.697Z,3.80
2022-08-03T12:02:58.232Z,3.47
2022-08-03T12:04:04.924Z,3.47
2022-08-03T12:05:08.048Z,3.25
2022-08-03T12:06:12.591Z,3.90
2022-08-03T12:08:02.407Z,3.87
2022-08-03T12:08:41.952Z,3.62
2022-08-03T12:10:05.162Z,3.70
2022-08-03T12:11:12.020Z,3.53
2022-08-03T12:12:17.096Z,3.50
2022-08-03T12:14:45.351Z,3.75
2022-08-03T12:14:51.064Z,3.58
2022-08-03T12:15:59.414Z,3.60
2022-08-03T12:17:02.252Z,3.50
2022-08-03T12:18:14.503Z,3.45
2022-08-03T12:19:17.184Z,3.85
2022-08-03T12:20:34.583Z,3.60
2022-08-03T12:21:55.818Z,3.35
2022-08-03T12:23:07.465Z,3.35
2022-08-03T12:24:10.133Z,3.22
2022-08-03T12:25:38.527Z,3.37
2022-08-03T12:26:58.926Z,3.20
2022-08-03T12:28:36.562Z,3.12
2022-08-03T12:29:39.853Z,3.20
2022-08-03T12:30:43.914Z,3.15
2022-08-03T12:31:47.233Z,3.33
2022-08-03T12:32:50.140Z,3.47
2022-08-03T12:34:03.147Z,3.78
2022-08-03T12:35:06.600Z,3.70
2022-08-03T12:36:10.621Z,3.40
2022-08-03T12:37:22.518Z,3.42
2022-08-03T12:38:29.641Z,3.15
2022-08-03T12:39:33.527Z,3.45
2022-08-03T12:40:36.347Z,3.17
2022-08-03T12:41:41.025Z,3.65
2022-08-03T12:42:43.643Z,3.28
2022-08-03T12:43:50.178Z,3.20
2022-08-03T12:44:56.294Z,3.83
2022-08-03T12:46:16.645Z,3.20
2022-08-03T12:47:19.645Z,3.53
2022-08-03T12:48:23.509Z,3.55
2022-08-03T12:49:54.279Z,3.42
2022-08-03T12:51:11.538Z,3.60
2022-08-03T12:52:14.411Z,3.87
2022-08-03T12:53:29.125Z,3.40
2022-08-03T12:54:32.777Z,3.47
2022-08-03T12:55:40.199Z,3.33
2022-08-03T12:57:06.164Z,3.47
2022-08-03T12:58:14.670Z,3.60
2022-08-03T12:59:34.772Z,3.28
2022-08-03T13:00:38.495Z,3.50
2022-08-03T13:01:54.898Z,3.22
2022-08-03T13:03:39.270Z,3.45
2022-08-03T13:04:28.218Z,3.28
2022-08-03T13:05:32.547Z,3.55
2022-08-03T13:06:38.832Z,3.40
2022-08-03T13:07:46.221Z,3.20
2022-08-03T13:08:49.747Z,3.42
2022-08-03T13:09:56.407Z,3.55
2022-08-03T13:10:59.085Z,3.30
2022-08-03T13:12:21.539Z,3.00
2022-08-03T13:13:39.907Z,3.10
2022-08-03T13:14:44.773Z,3.50
2022-08-03T13:15:47.592Z,3.37
2022-08-03T13:16:51.179Z,3.37
2022-08-03T13:18:03.844Z,3.37
2022-08-03T13:19:15.627Z,3.35
2022-08-03T13:20:19.144Z,3.17
2022-08-03T13:21:22.013Z,3.65
2022-08-03T13:22:29.223Z,3.95
2022-08-03T13:23:32.159Z,2.85
2022-08-03T13:24:34.854Z,3.33
2022-08-03T13:25:37.567Z,3.20
2022-08-03T13:26:58.206Z,3.00
2022-08-03T13:28:05.879Z,3.25
2022-08-03T13:29:09.735Z,3.87
2022-08-03T13:30:12.752Z,3.60
2022-08-03T13:31:15.769Z,3.50
2022-08-03T13:32:18.684Z,3.50
2022-08-03T13:33:21.411Z,3.40
2022-08-03T13:34:24.217Z,3.33
2022-08-03T13:35:26.884Z,3.47
2022-08-03T13:36:29.849Z,3.42
2022-08-03T13:37:37.555Z,3.60
2022-08-03T13:38:41.057Z,3.87
2022-08-03T13:39:57.183Z,3.80
2022-08-03T13:41:04.821Z,3.78
2022-08-03T13:42:08.561Z,3.35
2022-08-03T13:43:11.278Z,3.35
2022-08-03T13:44:29.706Z,3.33
2022-08-03T13:45:36.821Z,3.45
2022-08-03T13:46:40.305Z,3.42
2022-08-03T13:47:43.314Z,2.83
2022-08-03T13:48:46.239Z,3.53
2022-08-03T13:49:59.364Z,3.30
2022-08-03T13:51:11.864Z,3.20
2022-08-03T13:52:25.635Z,3.20
2022-08-03T13:53:28.492Z,3.00
2022-08-03T13:54:31.209Z,3.62
2022-08-03T13:55:37.997Z,3.55
2022-08-03T13:56:40.753Z,3.28
2022-08-03T13:58:02.506Z,3.00
2022-08-03T13:59:11.346Z,3.22
2022-08-03T14:00:26.158Z,3.10
2022-08-03T14:01:54.208Z,3.20
2022-08-03T14:02:57.345Z,2.80
2022-08-03T14:04:05.819Z,3.60
2022-08-03T14:05:22.863Z,3.40
2022-08-03T14:06:26.264Z,2.87
2022-08-03T14:07:29.061Z,3.30
2022-08-03T14:08:39.420Z,3.30
2022-08-03T14:09:42.180Z,3.08
2022-08-03T14:10:45.822Z,2.97
2022-08-03T14:12:03.959Z,3.35
2022-08-03T14:13:12.924Z,2.97
2022-08-03T14:14:20.519Z,3.28
2022-08-03T14:15:23.670Z,3.28
2022-08-03T14:16:26.480Z,3.20
2022-08-03T14:17:42.066Z,3.10
2022-08-03T14:18:46.022Z,3.05
2022-08-03T14:19:52.916Z,3.10
2022-08-03T14:21:01.938Z,3.15
2022-08-03T14:22:08.044Z,3.00
2022-08-03T14:23:10.866Z,3.00
2022-08-03T14:24:13.633Z,3.58
2022-08-03T14:25:16.942Z,3.37
2022-08-03T14:26:20.653Z,2.95
2022-08-03T14:27:23.449Z,2.67
2022-08-03T14:28:28.880Z,3.03
2022-08-03T14:29:31.535Z,3.25
2022-08-03T14:30:35.120Z,3.20
2022-08-03T14:32:11.877Z,2.87
2022-08-03T14:33:01.049Z,3.05
2022-08-03T14:34:04.510Z,3.08
2022-08-03T14:35:07.595Z,3.00
2022-08-03T14:36:10.374Z,2.80
2022-08-03T14:37:13.023Z,2.90
2022-08-03T14:38:16.935Z,2.97
2022-08-03T14:39:20.384Z,2.92
2022-08-03T14:40:23.109Z,3.05
2022-08-03T14:41:26.080Z,3.00
2022-08-03T14:42:28.827Z,3.40
2022-08-03T14:43:34.394Z,3.15
2022-08-03T14:44:37.199Z,3.00
2022-08-03T14:45:40.685Z,3.25
2022-08-03T14:46:43.623Z,3.10
2022-08-03T14:50:29.670Z,3.08
2022-08-03T14:50:37.900Z,2.85
2022-08-03T14:50:42.976Z,3.65
2022-08-03T14:51:51.364Z,3.45
2022-08-03T14:52:56.373Z,3.20
2022-08-03T14:53:59.208Z,3.37
2022-08-03T14:55:02.199Z,3.28
2022-08-03T14:56:10.056Z,3.35
2022-08-03T14:57:14.064Z,3.17
2022-08-03T14:58:19.786Z,3.10
2022-08-03T14:59:24.404Z,3.20
2022-08-03T15:00:27.225Z,3.30
2022-08-03T15:02:04.675Z,3.45
2022-08-03T15:02:52.771Z,3.20
2022-08-03T15:03:55.715Z,3.00
2022-08-03T15:04:58.377Z,3.30
2022-08-03T15:06:01.125Z,3.17
2022-08-03T15:07:04.174Z,3.20
2022-08-03T15:08:09.307Z,3.12
2022-08-03T15:09:21.408Z,3.55
2022-08-03T15:10:40.038Z,3.60
2022-08-03T15:11:52.424Z,3.50
2022-08-03T15:12:55.821Z,3.12